createdAt,value
2019-01-10T00:00:54.747Z,2.42
2019-01-10T00:03:24.444Z,2.20
2019-01-10T00:05:54.772Z,2.25
2019-01-10T00:11:18.469Z,2.37
2019-01-10T00:13:47.763Z,2.20
2019-01-10T00:16:17.401Z,2.77
2019-01-10T00:19:07.749Z,3.10
2019-01-10T00:21:37.341Z,2.40
2019-01-10T00:24:07.009Z,2.77
2019-01-10T00:26:36.505Z,2.13
2019-01-10T00:29:06.883Z,2.30
2019-01-10T00:31:36.411Z,2.40
2019-01-10T00:34:05.838Z,2.07
2019-01-10T00:36:35.604Z,2.90
2019-01-10T00:39:44.982Z,2.45
2019-01-10T00:42:14.371Z,2.30
2019-01-10T00:44:43.708Z,2.50
2019-01-10T00:47:13.669Z,2.27
2019-01-10T00:49:55.654Z,2.30
2019-01-10T00:52:25.283Z,2.33
2019-01-10T00:54:54.784Z,2.93
2019-01-10T00:57:24.390Z,2.23
2019-01-10T00:59:54.754Z,2.67
2019-01-10T01:02:24.371Z,2.30
2019-01-10T01:04:54.828Z,2.80
2019-01-10T01:07:24.417Z,2.30
2019-01-10T01:09:54.812Z,2.47
2019-01-10T01:12:24.431Z,2.17
2019-01-10T01:14:55.151Z,2.50
2019-01-10T01:17:24.962Z,2.23
2019-01-10T01:19:54.838Z,2.00
2019-01-10T01:22:24.773Z,3.00
2019-01-10T01:24:54.889Z,2.37
2019-01-10T01:27:24.815Z,2.50
2019-01-10T01:29:54.935Z,2.55
2019-01-10T01:32:24.557Z,2.67
2019-01-10T01:34:55.111Z,2.22
2019-01-10T01:37:24.628Z,2.77
2019-01-10T01:39:54.884Z,2.90
2019-01-10T01:42:24.515Z,2.50
2019-01-10T01:44:54.827Z,2.87
2019-01-10T01:47:24.454Z,2.90
2019-01-10T01:49:54.964Z,2.77
2019-01-10T01:52:24.637Z,2.50
2019-01-10T01:54:54.849Z,2.60
2019-01-10T01:57:24.510Z,3.00
2019-01-10T01:59:54.903Z,2.70
2019-01-10T02:02:24.518Z,2.47
2019-01-10T02:04:55.037Z,2.90
2019-01-10T02:07:24.530Z,2.53
2019-01-10T02:10:34.991Z,2.45
2019-01-10T02:13:04.819Z,2.70
2019-01-10T02:15:35.774Z,3.07
2019-01-10T02:18:05.427Z,3.12
2019-01-10T02:20:34.767Z,3.07
2019-01-10T02:23:04.122Z,2.60
2019-01-10T02:25:33.685Z,2.77
2019-01-10T02:28:03.015Z,2.93
2019-01-10T02:30:41.643Z,3.03
2019-01-10T02:33:22.810Z,2.97
2019-01-10T02:35:52.150Z,3.30
2019-01-10T02:38:21.719Z,3.00
2019-01-10T02:40:51.069Z,3.57
2019-01-10T02:43:26.272Z,3.50
2019-01-10T02:45:57.809Z,3.60
2019-01-10T02:48:27.135Z,3.60
2019-01-10T02:50:56.988Z,3.20
2019-01-10T02:53:26.320Z,4.53
2019-01-10T02:55:55.822Z,3.50
2019-01-10T02:58:26.761Z,3.90
2019-01-10T03:00:56.090Z,3.00
2019-01-10T03:03:25.641Z,3.33
2019-01-10T03:05:55.310Z,3.50
2019-01-10T03:08:24.834Z,3.17
2019-01-10T03:10:55.474Z,3.45
2019-01-10T03:13:24.803Z,3.80
2019-01-10T03:15:55.091Z,3.75
2019-01-10T03:18:26.031Z,3.40
2019-01-10T03:20:55.432Z,4.13
2019-01-10T03:23:24.846Z,4.10
2019-01-10T03:25:55.199Z,4.60
2019-01-10T03:28:43.843Z,3.50
2019-01-10T03:31:13.428Z,3.67
2019-01-10T03:33:42.827Z,3.70
2019-01-10T03:36:12.464Z,3.97
2019-01-10T03:38:42.101Z,3.73
2019-01-10T03:41:11.747Z,3.62
2019-01-10T03:43:47.076Z,4.27
2019-01-10T03:46:28.091Z,3.97
2019-01-10T03:48:57.425Z,3.63
2019-01-10T03:51:26.991Z,3.63
2019-01-10T03:53:56.612Z,3.62
2019-01-10T03:56:25.826Z,7.70
2019-01-10T03:58:55.419Z,4.90
2019-01-10T04:01:24.810Z,3.83
2019-01-10T04:03:55.357Z,4.55
2019-01-10T04:06:24.963Z,3.60
2019-01-10T04:08:55.257Z,4.25
2019-01-10T04:11:24.882Z,4.37
2019-01-10T04:13:57.505Z,4.00
2019-01-10T04:16:45.843Z,4.40
2019-01-10T04:19:15.180Z,4.30
2019-01-10T04:21:44.800Z,4.20
2019-01-10T04:24:14.139Z,3.87
2019-01-10T04:26:43.464Z,4.30
2019-01-10T04:29:12.836Z,4.97
2019-01-10T04:31:42.450Z,4.00
2019-01-10T04:34:12.138Z,5.33
2019-01-10T04:36:41.481Z,3.80
2019-01-10T04:39:11.115Z,4.22
2019-01-10T04:41:40.448Z,4.13
2019-01-10T04:44:10.074Z,4.53
2019-01-10T04:46:39.678Z,4.30
2019-01-10T04:49:09.159Z,4.40
2019-01-10T04:51:38.751Z,4.93
2019-01-10T04:54:08.188Z,4.60
2019-01-10T04:56:50.384Z,5.05
2019-01-10T04:59:20.002Z,4.40
2019-01-10T05:02:18.106Z,4.50
2019-01-10T05:29:19.082Z,5.07
2019-01-10T05:31:48.726Z,4.17
2019-01-10T05:34:18.161Z,5.57
2019-01-10T05:36:47.496Z,4.47
2019-01-10T05:39:17.258Z,4.63
2019-01-10T05:41:47.004Z,4.67
2019-01-10T05:44:26.210Z,4.33
2019-01-10T05:46:53.065Z,5.15
2019-01-10T05:49:22.412Z,5.23
2019-01-10T05:51:52.190Z,4.10
2019-01-10T05:54:21.525Z,4.53
2019-01-10T05:56:51.173Z,4.60
2019-01-10T06:02:17.448Z,4.80
2019-01-10T06:04:47.315Z,6.03
2019-01-10T06:07:16.642Z,5.50
2019-01-10T06:09:46.119Z,5.00
2019-01-10T06:12:15.461Z,4.67
2019-01-10T06:14:45.050Z,5.53
2019-01-10T06:17:14.390Z,4.90
2019-01-10T06:19:46.064Z,5.00
2019-01-10T06:22:15.390Z,5.70
2019-01-10T06:24:44.725Z,6.00
2019-01-10T06:27:14.479Z,6.10
2019-01-10T06:30:24.133Z,5.17
2019-01-10T06:32:53.453Z,5.63
2019-01-10T06:35:23.130Z,5.47
2019-01-10T06:37:52.795Z,6.00
2019-01-10T06:40:22.282Z,6.37
2019-01-10T06:42:51.604Z,5.50
2019-01-10T06:45:21.191Z,5.80
2019-01-10T06:47:50.527Z,6.00
2019-01-10T06:50:21.485Z,5.03
2019-01-10T06:52:51.128Z,5.65
2019-01-10T06:55:20.470Z,7.17
2019-01-10T06:57:50.101Z,5.37
2019-01-10T07:00:38.803Z,5.47
2019-01-10T07:03:08.441Z,5.20
2019-01-10T07:05:38.084Z,5.05
2019-01-10T07:08:07.765Z,5.07
2019-01-10T07:10:37.355Z,5.17
2019-01-10T07:13:06.679Z,5.30
2019-01-10T07:15:36.292Z,4.93
2019-01-10T07:18:05.634Z,4.80
2019-01-10T07:24:09.733Z,5.05
2019-01-10T07:26:39.323Z,4.60
2019-01-10T07:32:43.259Z,4.53
2019-01-10T07:35:52.931Z,4.50
2019-01-10T07:38:22.253Z,4.80
2019-01-10T07:40:51.597Z,5.43
2019-01-10T07:46:24.829Z,5.57
2019-01-10T07:48:55.513Z,4.60
2019-01-10T07:54:27.501Z,4.50
2019-01-10T07:57:09.332Z,4.97
2019-01-10T07:59:38.658Z,5.20
2019-01-10T08:02:08.296Z,4.65
2019-01-10T08:04:37.962Z,4.80
2019-01-10T08:07:07.599Z,4.65
2019-01-10T08:09:36.923Z,4.83
2019-01-10T08:12:06.584Z,5.83
2019-01-10T08:14:36.193Z,4.77
2019-01-10T08:17:05.536Z,4.87
2019-01-10T08:19:34.861Z,5.30
2019-01-10T08:22:04.495Z,5.42
2019-01-10T08:24:33.828Z,6.20
2019-01-10T08:29:52.074Z,6.10
2019-01-10T08:32:21.816Z,5.60
2019-01-10T08:34:51.435Z,5.40
2019-01-10T08:37:39.875Z,5.70
2019-01-10T08:40:15.463Z,5.77
2019-01-10T08:42:44.816Z,5.43
2019-01-10T08:45:35.380Z,5.90
2019-01-10T08:48:25.946Z,6.27
2019-01-10T08:50:56.145Z,5.93
2019-01-10T08:53:25.606Z,6.33
2019-01-10T08:55:55.916Z,6.25
2019-01-10T08:58:25.745Z,6.40
2019-01-10T09:00:57.019Z,6.00
2019-01-10T09:03:26.502Z,5.93
2019-01-10T09:05:56.062Z,6.20
2019-01-10T09:08:25.646Z,5.40
2019-01-10T09:10:56.264Z,6.30
2019-01-10T09:13:25.612Z,5.50
2019-01-10T09:16:03.783Z,5.90
2019-01-10T09:18:33.124Z,6.00
2019-01-10T09:21:04.401Z,6.27
2019-01-10T09:23:52.081Z,5.13
2019-01-10T09:26:16.069Z,5.60
2019-01-10T09:28:45.901Z,4.90
2019-01-10T09:31:15.528Z,5.50
2019-01-10T09:33:44.869Z,4.90
2019-01-10T09:36:14.494Z,5.80
2019-01-10T09:38:43.840Z,6.33
2019-01-10T09:41:13.165Z,4.77
2019-01-10T09:43:42.730Z,5.23
2019-01-10T09:46:12.061Z,5.67
2019-01-10T09:48:41.656Z,5.83
2019-01-10T09:51:10.985Z,5.95
2019-01-10T09:53:40.911Z,5.60
2019-01-10T09:56:10.245Z,6.40
2019-01-10T09:58:40.032Z,5.33
2019-01-10T10:01:09.656Z,5.95
2019-01-10T10:03:38.995Z,5.33
2019-01-10T10:06:14.056Z,5.57
2019-01-10T10:08:43.739Z,4.37
2019-01-10T10:11:13.064Z,4.30
2019-01-10T10:13:42.712Z,6.53
2019-01-10T10:16:12.038Z,4.83
2019-01-10T10:18:41.711Z,5.50
2019-01-10T10:21:11.040Z,5.50
2019-01-10T10:23:52.837Z,5.87
2019-01-10T10:26:30.905Z,5.10
2019-01-10T10:29:00.249Z,5.50
2019-01-10T10:31:29.778Z,5.33
2019-01-10T10:33:59.124Z,4.87
2019-01-10T10:36:29.944Z,4.80
2019-01-10T10:39:18.907Z,5.13
2019-01-10T10:44:38.251Z,4.83
2019-01-10T10:47:08.351Z,3.87
2019-01-10T10:49:37.783Z,5.67
2019-01-10T10:52:07.255Z,4.80
2019-01-10T10:54:36.821Z,5.33
2019-01-10T10:57:06.218Z,4.05
2019-01-10T11:02:16.887Z,3.50
2019-01-10T11:04:46.229Z,3.97
2019-01-10T11:07:16.160Z,3.12
2019-01-10T11:09:45.832Z,3.50
2019-01-10T11:12:15.152Z,4.00
2019-01-10T11:14:48.211Z,4.70
2019-01-10T11:17:54.269Z,3.30
2019-01-10T11:23:25.858Z,3.35
2019-01-10T11:25:56.402Z,3.85
2019-01-10T11:28:25.988Z,3.80
2019-01-10T11:30:56.471Z,3.20
2019-01-10T11:33:25.868Z,3.50
2019-01-10T11:35:56.235Z,3.80
2019-01-10T11:38:25.558Z,3.80
2019-01-10T11:41:36.366Z,4.15
2019-01-10T11:44:05.987Z,3.83
2019-01-10T11:49:21.437Z,3.63
2019-01-10T11:51:51.402Z,4.30
2019-01-10T11:54:21.030Z,3.63
2019-01-10T11:56:50.367Z,4.10
2019-01-10T11:59:20.003Z,4.70
2019-01-10T12:01:49.349Z,4.00
2019-01-10T12:04:18.993Z,4.90
2019-01-10T12:06:48.331Z,4.33
2019-01-10T12:09:17.659Z,5.87
2019-01-10T12:11:47.133Z,5.40
2019-01-10T12:14:16.456Z,4.77
2019-01-10T12:16:46.020Z,5.47
2019-01-10T12:19:15.374Z,5.67
2019-01-10T12:21:44.701Z,4.73
2019-01-10T12:24:14.083Z,5.80
2019-01-10T12:26:43.668Z,5.13
2019-01-10T12:29:13.114Z,5.70
2019-01-10T12:31:42.452Z,6.20
2019-01-10T12:34:12.296Z,5.65
2019-01-10T12:36:41.644Z,7.03
2019-01-10T12:39:11.293Z,20.00
2019-01-10T12:41:40.626Z,9.13
2019-01-10T12:44:10.248Z,6.60
2019-01-10T12:46:39.656Z,6.50
2019-01-10T12:49:28.745Z,4.75
2019-01-10T12:51:58.316Z,6.33
2019-01-10T12:54:27.645Z,5.50
2019-01-10T12:56:57.281Z,5.70
2019-01-10T12:59:28.519Z,5.70
2019-01-10T13:02:05.011Z,5.12
2019-01-10T13:04:34.340Z,7.10
2019-01-10T13:09:49.006Z,5.50
2019-01-10T13:12:18.347Z,5.80
2019-01-10T13:14:47.675Z,5.43
2019-01-10T13:17:17.182Z,5.70
2019-01-10T13:19:46.510Z,6.10
2019-01-10T13:22:16.164Z,5.33
2019-01-10T13:24:45.492Z,4.90
2019-01-10T13:30:27.267Z,5.30
2019-01-10T13:32:56.725Z,5.17
2019-01-10T13:35:26.323Z,5.97
2019-01-10T13:37:56.568Z,5.20
2019-01-10T13:40:26.603Z,5.45
2019-01-10T13:42:56.621Z,5.30
2019-01-10T13:45:47.389Z,6.37
2019-01-10T13:48:32.143Z,4.83
2019-01-10T13:51:01.645Z,6.07
2019-01-10T13:53:31.621Z,6.35
2019-01-10T13:56:02.916Z,5.58
2019-01-10T13:58:51.739Z,35.03
2019-01-10T14:01:21.379Z,5.83
2019-01-10T14:03:50.728Z,5.80
2019-01-10T14:06:20.664Z,7.17
2019-01-10T14:08:50.301Z,5.40
2019-01-10T14:11:19.628Z,5.37
2019-01-10T14:13:48.971Z,5.53
2019-01-10T14:16:18.304Z,7.17
2019-01-10T14:19:07.012Z,5.20
2019-01-10T14:21:36.403Z,4.13
2019-01-10T14:24:05.952Z,6.17
2019-01-10T14:26:35.385Z,5.20
2019-01-10T14:29:25.647Z,5.53
2019-01-10T14:31:56.602Z,5.40
2019-01-10T14:34:26.293Z,6.13
2019-01-10T14:36:56.631Z,6.05
2019-01-10T14:39:25.983Z,5.60
2019-01-10T14:41:57.054Z,6.15
2019-01-10T14:44:26.418Z,5.83
2019-01-10T14:46:56.742Z,5.22
2019-01-10T14:49:26.403Z,5.50
2019-01-10T14:51:57.174Z,5.05
2019-01-10T14:54:26.548Z,4.57
2019-01-10T14:56:58.125Z,6.05
2019-01-10T14:59:36.759Z,7.80
2019-01-10T15:02:06.394Z,7.90
2019-01-10T15:04:35.743Z,7.20
2019-01-10T15:07:05.121Z,6.45
2019-01-10T15:09:34.560Z,6.67
2019-01-10T15:12:04.010Z,6.77
2019-01-10T15:14:33.386Z,6.10
2019-01-10T15:17:02.712Z,7.40
2019-01-10T15:19:32.359Z,8.58
2019-01-10T15:22:02.055Z,9.33
2019-01-10T15:24:31.557Z,6.70
2019-01-10T15:27:00.896Z,6.97
2019-01-10T15:29:30.551Z,9.27
2019-01-10T15:32:01.793Z,6.83
2019-01-10T15:34:31.738Z,6.58
2019-01-10T15:37:01.343Z,8.73
2019-01-10T15:39:31.073Z,9.53
2019-01-10T15:42:00.833Z,6.40
2019-01-10T15:44:30.471Z,7.10
2019-01-10T15:47:00.104Z,7.80
2019-01-10T15:49:29.563Z,6.27
2019-01-10T15:51:58.890Z,7.30
2019-01-10T15:54:28.528Z,6.80
2019-01-10T15:57:00.780Z,7.50
2019-01-10T16:28:06.892Z,7.15
2019-01-10T16:30:36.543Z,7.08
2019-01-10T16:33:06.177Z,6.90
2019-01-10T16:35:35.780Z,8.80
2019-01-10T16:38:05.110Z,7.60
2019-01-10T16:40:34.618Z,8.60
2019-01-10T16:46:07.591Z,7.43
2019-01-10T16:48:36.924Z,9.57
2019-01-10T16:51:06.870Z,9.35
2019-01-10T16:53:36.204Z,7.80
2019-01-10T16:56:05.920Z,8.93
2019-01-10T16:58:35.525Z,8.07
2019-01-10T17:01:04.908Z,8.95
2019-01-10T17:03:34.537Z,8.73
2019-01-10T17:06:25.003Z,8.43
2019-01-10T17:09:17.649Z,8.00
2019-01-10T17:11:46.330Z,9.70
2019-01-10T17:14:15.662Z,10.43
2019-01-10T17:16:50.163Z,9.50
2019-01-10T17:19:21.666Z,9.20
2019-01-10T17:21:51.021Z,9.80
2019-01-10T17:24:20.645Z,9.23
2019-01-10T17:26:49.991Z,11.63
2019-01-10T17:29:19.896Z,10.25
2019-01-10T17:31:49.590Z,11.07
2019-01-10T17:34:18.939Z,13.50
2019-01-10T17:36:48.322Z,9.33
2019-01-10T17:39:17.947Z,12.10
2019-01-10T17:41:47.293Z,10.37
2019-01-10T17:44:16.745Z,10.57
2019-01-10T17:46:46.127Z,11.53
2019-01-10T17:49:15.782Z,10.32
2019-01-10T17:51:45.128Z,9.87
2019-01-10T17:54:15.057Z,8.50
2019-01-10T17:56:44.721Z,8.88
2019-01-10T17:59:14.189Z,9.83
2019-01-10T18:01:43.835Z,11.33
2019-01-10T18:04:14.738Z,9.70
2019-01-10T18:10:33.714Z,10.40
2019-01-10T18:13:03.163Z,10.43
2019-01-10T18:15:32.732Z,9.83
2019-01-10T18:18:02.077Z,9.50
2019-01-10T18:20:52.593Z,9.50
2019-01-10T18:23:22.277Z,9.67
2019-01-10T18:25:51.961Z,8.43
2019-01-10T18:28:21.290Z,9.20
2019-01-10T18:30:50.940Z,10.30
2019-01-10T18:33:20.276Z,9.10
2019-01-10T18:35:50.279Z,8.75
2019-01-10T18:38:19.871Z,10.00
2019-01-10T18:40:49.205Z,9.17
2019-01-10T18:43:18.560Z,9.70
2019-01-10T18:45:48.072Z,10.80
2019-01-10T18:48:17.480Z,9.20
2019-01-10T18:50:47.045Z,9.00
2019-01-10T18:53:16.395Z,10.27
2019-01-10T18:58:34.444Z,9.27
2019-01-10T19:01:05.646Z,9.90
2019-01-10T19:03:54.299Z,9.33
2019-01-10T19:06:24.173Z,9.75
2019-01-10T19:08:53.561Z,8.97
2019-01-10T19:11:22.995Z,9.07
2019-01-10T19:13:52.357Z,8.90
2019-01-10T19:19:31.170Z,8.97
2019-01-10T19:25:03.505Z,12.25
2019-01-10T19:27:33.146Z,12.67
2019-01-10T19:30:02.485Z,11.17
2019-01-10T19:32:32.112Z,12.37
2019-01-10T19:35:01.514Z,11.70
2019-01-10T19:37:31.274Z,10.50
2019-01-10T19:40:00.612Z,13.00
2019-01-10T19:42:30.194Z,11.10
2019-01-10T19:44:59.529Z,9.50
2019-01-10T19:47:29.161Z,8.53
2019-01-10T19:52:47.902Z,10.70
2019-01-10T19:55:24.188Z,11.60
2019-01-10T19:58:33.594Z,11.43
2019-01-10T20:01:03.232Z,12.85
2019-01-10T20:03:32.591Z,12.90
2019-01-10T20:06:02.175Z,13.60
2019-01-10T20:08:31.768Z,12.60
2019-01-10T20:11:01.105Z,13.58
2019-01-10T20:13:30.458Z,12.87
2019-01-10T20:16:00.428Z,13.53
2019-01-10T20:18:31.406Z,13.77
2019-01-10T20:21:00.822Z,15.57
2019-01-10T20:23:30.486Z,14.60
2019-01-10T20:26:00.150Z,14.45
2019-01-10T20:28:29.722Z,15.63
2019-01-10T20:30:59.209Z,16.80
2019-01-10T20:33:28.525Z,13.00
2019-01-10T20:35:58.222Z,13.48
2019-01-10T20:38:27.822Z,15.93
2019-01-10T20:40:57.632Z,14.53
2019-01-10T20:43:27.290Z,14.73
2019-01-10T20:45:57.725Z,14.75
2019-01-10T20:48:27.452Z,15.30
2019-01-10T20:50:57.584Z,17.48
2019-01-10T20:53:48.551Z,18.47
2019-01-10T20:56:18.284Z,18.55
2019-01-10T20:58:47.776Z,17.60
2019-01-10T21:01:17.279Z,16.00
2019-01-10T21:03:46.635Z,16.07
2019-01-10T21:06:16.274Z,15.65
2019-01-10T21:08:45.623Z,18.10
2019-01-10T21:11:15.685Z,16.95
2019-01-10T21:13:45.343Z,18.73
2019-01-10T21:16:14.918Z,18.63
2019-01-10T21:18:46.112Z,17.87
2019-01-10T21:21:15.757Z,18.07
2019-01-10T21:23:45.411Z,18.47
2019-01-10T21:26:15.065Z,18.87
2019-01-10T21:28:44.513Z,17.13
2019-01-10T21:31:13.897Z,19.93
2019-01-10T21:36:31.868Z,19.77
2019-01-10T21:39:01.502Z,20.57
2019-01-10T22:02:05.673Z,20.77
2019-01-10T22:04:36.709Z,21.10
2019-01-10T22:07:06.093Z,19.50
2019-01-10T22:09:35.599Z,17.00
2019-01-10T22:14:51.657Z,22.77
2019-01-10T22:17:21.319Z,22.87
2019-01-10T22:19:50.668Z,23.43
2019-01-10T22:22:20.327Z,22.30
2019-01-10T22:24:49.738Z,23.43
2019-01-10T22:27:19.446Z,22.67
2019-01-10T22:29:48.796Z,22.57
2019-01-10T22:32:18.452Z,21.95
2019-01-10T22:35:27.873Z,22.20
2019-01-10T22:37:57.930Z,22.63
2019-01-10T22:40:27.527Z,22.23
2019-01-10T22:42:57.874Z,22.80
2019-01-10T22:45:27.511Z,22.82
2019-01-10T22:47:58.114Z,22.85
2019-01-10T22:50:27.579Z,23.70
2019-01-10T22:53:19.142Z,19.75
2019-01-10T22:56:08.362Z,19.67
2019-01-10T22:58:37.742Z,22.47
2019-01-10T23:07:48.663Z,20.60
2019-01-10T23:10:18.011Z,19.87
2019-01-10T23:12:48.990Z,19.97
2019-01-10T23:18:45.816Z,14.93
2019-01-10T23:21:32.363Z,18.30
2019-01-10T23:27:15.119Z,17.87
2019-01-10T23:29:44.764Z,15.60
2019-01-10T23:32:14.390Z,19.50
2019-01-10T23:38:23.360Z,18.20
2019-01-10T23:40:52.970Z,18.23
2019-01-10T23:43:22.762Z,17.30
2019-01-10T23:45:52.129Z,17.00
2019-01-10T23:51:17.325Z,18.03
2019-01-10T23:53:46.870Z,15.70
2019-01-10T23:56:16.208Z,15.60
2019-01-10T23:58:46.102Z,14.13
